• Join FlightAware (Why Join?)
  • Login
  • US Flag 
09:32PM EDT


 

Airport Tracker/Info


-or-


 

Live Flight TrackerFlight Track Log ✈ N508QS ✈ 01-Oct-2013 ✈ KSFO - KBFI

Flight Track Log - Related Links

Times and Time Zones

All times are in EDT time to prevent confusion due to time zone crossing. See the N508QS flight status page for this flight to view local times or setup timezone preferences in your user account.

Time Position Orientation Groundspeed Altitude Reporting Facility
EDT Latitude Longitude Course Direction KTS MPH feet Rate Location/Type
09:00AM 37.6406 -122.3617 North 164 189 2,000  Level Oakland Center
09:01AM 37.6917 -122.3192 33° Northeast 236 272 5,400 4,020 Climbing Oakland Center
09:02AM 37.7606 -122.2814 23° Northeast 274 315 10,100 3,660 Climbing Oakland Center
09:03AM 37.8514 -122.2667 North 336 387 12,800 3,120 Climbing Oakland Center
09:04AM 37.9533 -122.2514 North 368 423 16,500 3,360 Climbing Oakland Center
09:05AM 38.2155 -122.3714 North  Level Estimated
09:05AM 38.0611 -122.2561 358° North 390 449 19,600  Level Oakland Center
09:06AM 38.1747 -122.2597 359° North 409 471 22,900 2,940 Climbing Oakland Center
09:07AM 38.2919 -122.2642 358° North 421 484 25,600 2,520 Climbing Oakland Center
09:08AM 38.4175 -122.2692 358° North 448 516 28,000 2,400 Climbing Oakland Center
09:09AM 38.5489 -122.2750 358° North 470 541 30,500 2,400 Climbing Oakland Center
09:10AM 38.7025 -122.2811 358° North 485 558 32,900 1,980 Climbing Oakland Center
09:11AM 38.8447 -122.2872 358° North 504 580 34,600 1,920 Climbing Oakland Center
09:12AM 38.9867 -122.2931 358° North 507 583 36,800 1,740 Climbing Oakland Center
09:13AM 39.1297 -122.2994 358° North 511 588 38,200 1,560 Climbing Oakland Center
09:14AM 39.2725 -122.3047 358° North 511 588 40,000 900 Climbing Oakland Center
09:15AM 39.4147 -122.3111 358° North 510 587 40,000  Level Oakland Center
09:16AM 39.5394 -122.3144 359° North 509 586 40,000  Level Oakland Center
09:17AM 39.6811 -122.3206 358° North 509 586 40,000  Level Oakland Center
09:18AM 39.8222 -122.3267 358° North 508 585 40,000  Level Oakland Center
09:19AM 39.9636 -122.3322 358° North 507 583 40,000  Level Oakland Center
09:20AM 40.1239 -122.3411 358° North 510 587 40,000  Level Oakland Center
09:21AM 40.2636 -122.3439 359° North 522 601 40,000  Level Oakland Center
09:22AM 40.4047 -122.3500 358° North 514 592 40,000  Level Oakland Center
09:23AM 40.5450 -122.3567 358° North 508 585 40,000  Level Oakland Center
09:24AM 40.6867 -122.3611 359° North 509 586 40,000  Level Oakland Center
09:25AM 40.8269 -122.3664 358° North 506 582 40,000  Level Oakland Center
09:26AM 40.9678 -122.3728 358° North 507 583 40,000  Level Oakland Center
09:27AM 41.1089 -122.3806 358° North 510 587 40,000  Level Oakland Center
09:28AM 41.2508 -122.3878 358° North 510 587 40,000  Level Oakland Center
09:29AM 41.3914 -122.3944 358° North 509 586 40,000  Level Seattle Center
09:30AM 41.5192 -122.3978 359° North 508 585 40,000  Level Seattle Center
09:31AM 41.6611 -122.4044 358° North 509 586 40,000  Level Seattle Center
09:32AM 41.8033 -122.4111 358° North 508 585 40,000  Level Seattle Center
09:33AM 41.9467 -122.4158 359° North 511 588 40,000  Level Seattle Center
09:34AM 42.0925 -122.4219 358° North 515 593 40,000  Level Seattle Center
09:35AM 42.2375 -122.4272 358° North 514 592 40,000  Level Seattle Center
09:36AM 42.3822 -122.4325 358° North 515 593 40,000  Level Seattle Center
09:37AM 42.5281 -122.4394 358° North 519 597 40,000  Level Seattle Center
09:38AM 42.6736 -122.4458 358° North 520 598 40,000  Level Seattle Center
09:39AM 42.8433 -122.4533 358° North 528 608 40,000  Level Seattle Center
09:40AM 42.9894 -122.4594 358° North 527 606 40,000  Level Seattle Center
09:41AM 43.1356 -122.4664 358° North 526 605 40,000  Level Seattle Center
09:42AM 43.2828 -122.4728 358° North 528 608 40,000  Level Seattle Center
09:43AM 43.4286 -122.4789 358° North 526 605 40,000  Level Seattle Center
09:44AM 43.5736 -122.4872 358° North 525 604 40,000  Level Seattle Center
09:45AM 43.7203 -122.4931 358° North 527 606 40,000  Level Seattle Center
09:46AM 43.8692 -122.4997 358° North 533 613 40,000  Level Seattle Center
09:47AM 44.0147 -122.5058 358° North 530 610 40,000  Level Seattle Center
09:48AM 44.1553 -122.5144 357° North 513 590 40,000  Level Seattle Center
09:49AM 44.2997 -122.5206 358° North 519 597 40,000  Level Seattle Center
09:50AM 44.4450 -122.5275 358° North 523 602 40,000  Level Seattle Center
09:51AM 44.5894 -122.5356 358° North 524 603 40,000  Level Seattle Center
09:52AM 44.7633 -122.5433 358° North 523 602 40,000  Level Seattle Center
09:53AM 44.8875 -122.5486 358° North 526 605 40,000  Level Seattle Center
09:54AM 45.0331 -122.5572 358° North 527 606 40,000  Level Seattle Center
09:55AM 45.1756 -122.5639 358° North 520 598 40,000  Level Seattle Center
09:56AM 45.3181 -122.5694 358° North 516 594 40,000  Level Seattle Center
09:57AM 45.4917 -122.5783 358° North 524 603 40,000  Level Seattle Center
09:58AM 45.6403 -122.5856 358° North 534 615 40,000  Level Seattle Center
09:59AM 45.7833 -122.5992 356° North 523 602 40,000 -780 Level Seattle Center
10:00AM 45.9217 -122.6336 350° North 510 587 38,500 -2,100 Descending Seattle Center
10:01AM 46.0603 -122.6678 350° North 509 586 35,800 -2,700 Descending Seattle Center
10:02AM 46.1978 -122.7011 350° North 504 580 33,100 -2,640 Descending Seattle Center
10:03AM 46.3356 -122.7356 350° North 505 581 30,500 -2,640 Descending Seattle Center
10:04AM 46.4736 -122.7722 350° North 505 581 27,800 -2,640 Descending Seattle Center
10:05AM 46.6058 -122.8086 349° North 489 563 25,200 -2,460 Descending Seattle Center
10:06AM 46.7344 -122.8081 360° North 469 540 22,800 -2,640 Descending Seattle Center
10:06AM 46.8053 -122.7792 16° North 471 542 21,300 -2,700 Descending Seattle Center
10:07AM 46.8583 -122.7517 20° North 465 535 20,100 -2,640 Descending Seattle Center
10:07AM 46.9222 -122.7231 17° North 426 490 18,700 -2,700 Descending Seattle Center
10:08AM 46.9803 -122.6953 18° North 424 488 17,400 -2,520 Descending Seattle Center
10:09AM 47.0456 -122.6664 17° North 402 463 15,900 -2,460 Descending Seattle Center
10:09AM 47.0944 -122.6422 19° North 401 461 14,900 -2,220 Descending Seattle Center
10:10AM 47.1486 -122.6172 17° North 382 440 13,700 -2,220 Descending Seattle Center
10:10AM 47.1942 -122.5947 19° North 381 438 12,700 -2,340 Descending Seattle Center
10:10AM 47.2336 -122.5678 25° Northeast 353 406 11,600 -2,100 Descending Seattle Center
10:11AM 47.2728 -122.5181 41° Northeast 345 397 10,600 -1,620 Descending Seattle Center
10:11AM 47.3022 -122.4783 42° Northeast 317 365 10,000 -1,500 Descending Seattle Center
10:12AM 47.3442 -122.4589 17° North 307 353 9,100 -1,740 Descending Seattle Center
10:12AM 47.3814 -122.4578 North 281 323 8,300 -2,040 Descending Seattle Center
10:13AM 47.4242 -122.4531 North 286 329 7,100 -2,280 Descending Seattle Center
10:14AM 47.4597 -122.4508 North 277 319 6,000 -2,280 Descending Seattle Center
10:14AM 47.5006 -122.4533 358° North 272 313 4,800 -2,220 Descending Seattle Center
10:15AM 47.5333 -122.4694 342° North 266 306 3,800 -1,980 Descending Seattle Center
10:15AM 47.5714 -122.4856 344° North 267 307 2,800 -1,440 Descending Seattle Center
10:15AM 47.5983 -122.4994 341° North 258 297 2,500 -600 Descending Seattle Center
10:16AM 47.6367 -122.5136 346° North 249 287 2,200 -300 Descending Seattle Center
10:16AM 47.6558 -122.4975 30° Northeast 208 239 2,200  Level Seattle Center
10:17AM 47.6842 -122.4686 34° Northeast 207 238 2,200  Level Seattle Center
10:17AM 47.6836 -122.4492 92° East 198 228 2,200  Level Seattle Center
10:18AM 47.6614 -122.4150 134° Southeast 162 186 2,200  Level Seattle Center
10:18AM 47.6511 -122.4081 156° South 142 163 2,200 -240 Level Seattle Center
10:19AM 47.6219 -122.3811 148° Southeast 154 177 2,000 -420 Descending Seattle Center
10:19AM 47.6139 -122.3758 156° South 147 169 1,800 -840 Descending Seattle Center
10:20AM 47.5903 -122.3539 148° Southeast 136 157 1,200 -720 Descending Seattle Center
10:20AM 47.5850 -122.3492 149° Southeast 116 133 1,100 -600 Descending Seattle Center
10:21AM 47.5633 -122.3322 152° Southeast 112 129 600 -660 Descending Seattle Center
10:21AM 47.5567 -122.3253 145° Southeast 105 121 400 -300 Descending Seattle Center
10:22AM 47.5422 -122.3150 154° Southeast 109 125 300 -180 Descending Seattle Center
10:24AM 47.5300 -122.3020 131° Southeast  Level Estimated